Portada
METAR-TAF:

METAR-TAF

Aeroports :

Bingöl, Turquia

latitud: 38-51-40N, longitud: 40-35-33E, altitud: 1063 m

Observació

L'informe es va fer fa 2 hores i 20 minuts, a les 11:50 UTC
Vent 2 kt amb direcció variable
Temperatura 10°C
Humitat 57%
Pressió 1021 hPa
Visibilitat 10 km o més
Núvols disperses a una alçada de 3500 ft
Cel ennuvolat a una alçada de 10000 ft

METAR: LTCU 231150Z VRB02KT 9999 SCT035 BKN100 10/02 Q1021

Hora: 17:10 (14:10 UTC)

Pronòstic

L'informe es va fer fa 3 hores i 30 minuts, a les 10:40 UTC
Pronòstic vàlid del 23 a les 12 UTC al 23 a les 21 UTC
Vent 2 kt amb direcció variable
Visibilitat 10 km o més
Núvols disperses a una alçada de 3500 ft
Cel ennuvolat a una alçada de 10000 ft
Temporalment
l' 23 a les 12 UTC al 23 a les 15 UTC
Núvols disperses a una alçada de 1000 ft
Cel ennuvolat a una alçada de 3000 ft
Cel cobert a una alçada de 8000 ft
pluja

TAF: LTCU 231040Z 2312/2321 VRB02KT 9999 SCT035 BKN100 TEMPO 2312/2315 -RA SCT010 BKN030 OVC080

Observacions i pronòstics meteorològics de més de 4000 aeroports (METAR i TAF).

Les estacions disponibles són els punts grocs i vermells al mapa.

Posi el ratolí al punt desitjat per veure el nom de l'estació.

Feu clic per veure les observacions i els pronòstics meteorològics.

Per canviar el mapa: feu clic els botons verds amb una creu de color negre per apropar; al botó verd amb un guió per allunyar la imatge; o en les fletxes verdes per a mapes adjacents.


METAR-TAF: